KTEB

Teterboro Airport

Teterboro, New Jersey, USA
METAR KTEB 141251Z 36004KT 10SM OVC027 05/03 A3047 RMK AO2 SLP318 T00500033
Observed Flight Rules
Dec-14 @ 12:51 UTC (33 minutes ago) Marginal Visual Flight Rules
Wind Visibility Clouds
360° at 4 knots 10 miles
  • Overcast at 2,700' AGL
Temperatures Readings
Current 5°C / 41°F
Dewpoint 3°C / 37°F
Humidity 87%
Altimeter 30.47" Hg
Pressure 1031.8 hPa
Elevation 7
METAR KTEB 141251Z 36004KT 10SM OVC027 05/03 A3047 RMK AO2 SLP318 T00500033
Observed Flight Rules
Dec-14 @ 12:51 UTC
(33 minutes ago)
MVFR
Wind Visibility
360° at 4 knots 10 miles
Clouds
  • Overcast at 2,700' AGL
Temperature Dewpoint
5°C / 41°F 3°C / 37°F
Humidity Altimeter Pressure
87% 30.47" Hg 1031.8 hPa